createdAt,value
2023-02-14T00:00:19.590Z,45
2023-02-14T00:05:19.596Z,68
2023-02-14T00:10:19.647Z,45
2023-02-14T00:15:19.815Z,45
2023-02-14T00:20:16.635Z,45
2023-02-14T00:25:19.663Z,45
2023-02-14T00:30:16.744Z,90
2023-02-14T00:35:16.703Z,68
2023-02-14T00:40:16.684Z,45
2023-02-14T00:45:16.743Z,68
2023-02-14T00:50:16.797Z,68
2023-02-14T00:55:16.655Z,45
2023-02-14T01:00:19.689Z,112
2023-02-14T01:05:19.657Z,112
2023-02-14T01:10:19.678Z,112
2023-02-14T01:15:19.695Z,112
2023-02-14T01:20:19.798Z,135
2023-02-14T01:25:16.551Z,135
2023-02-14T01:30:19.783Z,112
2023-02-14T01:35:19.799Z,135
2023-02-14T01:40:19.703Z,112
2023-02-14T01:45:19.720Z,135
2023-02-14T01:50:19.709Z,135
2023-02-14T01:55:16.976Z,112
2023-02-14T02:00:16.721Z,135
2023-02-14T02:05:19.755Z,112
2023-02-14T02:10:16.832Z,135
2023-02-14T02:15:19.833Z,135
2023-02-14T02:20:16.785Z,112
2023-02-14T02:25:19.925Z,135
2023-02-14T02:30:19.789Z,135
2023-02-14T02:35:19.756Z,135
2023-02-14T02:40:19.802Z,135
2023-02-14T02:45:19.795Z,158
2023-02-14T02:50:16.794Z,112
2023-02-14T02:55:16.925Z,112
2023-02-14T03:00:20.049Z,112
2023-02-14T03:05:19.833Z,135
2023-02-14T03:10:19.761Z,112
2023-02-14T03:15:19.835Z,112
2023-02-14T03:20:19.765Z,180
2023-02-14T03:25:19.761Z,180
2023-02-14T03:30:20.000Z,158
2023-02-14T03:35:20.026Z,135
2023-02-14T03:40:19.831Z,158
2023-02-14T03:45:16.933Z,112
2023-02-14T03:50:16.834Z,135
2023-02-14T03:55:16.864Z,158
2023-02-14T04:00:19.829Z,158
2023-02-14T04:05:19.809Z,225
2023-02-14T04:10:17.014Z,225
2023-02-14T04:15:19.836Z,225
2023-02-14T04:20:16.878Z,225
2023-02-14T04:25:19.879Z,225
2023-02-14T04:30:16.884Z,202
2023-02-14T04:35:19.896Z,225
2023-02-14T04:40:16.880Z,225
2023-02-14T04:45:20.076Z,225
2023-02-14T04:50:19.967Z,202
2023-02-14T04:55:16.862Z,225
2023-02-14T05:10:19.157Z,202
2023-02-14T05:50:16.134Z,158
2023-02-14T06:15:19.197Z,225
2023-02-14T06:20:19.154Z,158
2023-02-14T06:25:19.167Z,158
2023-02-14T06:30:16.421Z,202
2023-02-14T06:35:19.286Z,135
2023-02-14T06:40:16.232Z,158
2023-02-14T06:45:19.183Z,180
2023-02-14T06:50:19.197Z,158
2023-02-14T06:55:20.107Z,180
2023-02-14T07:00:19.288Z,158
2023-02-14T07:05:19.300Z,158
2023-02-14T07:10:19.210Z,135
2023-02-14T07:15:16.274Z,158
2023-02-14T07:20:16.239Z,180
2023-02-14T07:25:19.231Z,135
2023-02-14T07:30:16.388Z,158
2023-02-14T07:35:19.638Z,158
2023-02-14T07:40:19.248Z,135
2023-02-14T07:45:21.906Z,158
2023-02-14T07:50:19.288Z,202
2023-02-14T07:55:19.286Z,225
2023-02-14T08:00:16.060Z,225
2023-02-14T08:05:19.324Z,225
2023-02-14T08:10:16.359Z,225
2023-02-14T08:15:19.306Z,225
2023-02-14T08:20:19.314Z,225
2023-02-14T08:25:19.255Z,225
2023-02-14T08:30:19.299Z,225
2023-02-14T08:35:19.237Z,225
2023-02-14T08:40:19.426Z,225
2023-02-14T08:45:19.273Z,225
2023-02-14T08:50:19.261Z,292
2023-02-14T08:55:19.238Z,292
2023-02-14T09:00:16.116Z,225
2023-02-14T09:05:16.341Z,292
2023-02-14T09:10:19.273Z,292
2023-02-14T09:15:19.613Z,315
2023-02-14T09:20:16.342Z,292
2023-02-14T09:25:19.272Z,225
2023-02-14T09:30:16.406Z,248
2023-02-14T09:35:19.275Z,270
2023-02-14T09:40:16.144Z,225
2023-02-14T09:45:16.336Z,225
2023-02-14T09:50:19.511Z,225
2023-02-14T09:55:19.254Z,225
2023-02-14T10:00:19.256Z,225
2023-02-14T10:05:16.325Z,225
2023-02-14T10:10:16.359Z,225
2023-02-14T10:15:19.348Z,225
2023-02-14T10:20:19.336Z,225
2023-02-14T10:25:18.040Z,292
2023-02-14T10:30:16.441Z,225
2023-02-14T10:35:19.436Z,225
2023-02-14T10:40:19.373Z,225
2023-02-14T10:45:19.312Z,270
2023-02-14T10:50:16.416Z,292
2023-02-14T10:55:31.372Z,248
2023-02-14T11:00:19.610Z,292
2023-02-14T11:05:19.422Z,270
2023-02-14T11:10:16.403Z,225
2023-02-14T11:15:16.400Z,292
2023-02-14T11:20:19.372Z,292
2023-02-14T11:25:16.404Z,292
2023-02-14T11:30:19.474Z,292
2023-02-14T11:35:16.645Z,292
2023-02-14T11:40:19.600Z,248
2023-02-14T11:45:19.334Z,292
2023-02-14T11:50:19.545Z,270
2023-02-14T11:55:19.365Z,248
2023-02-14T12:00:16.258Z,270
2023-02-14T12:05:19.626Z,270
2023-02-14T12:10:19.444Z,225
2023-02-14T12:15:19.409Z,270
2023-02-14T12:20:19.432Z,225
2023-02-14T12:25:19.414Z,225
2023-02-14T12:30:16.576Z,225
2023-02-14T12:35:19.466Z,225
2023-02-14T12:40:16.659Z,225
2023-02-14T12:45:19.471Z,225
2023-02-14T12:50:19.388Z,225
2023-02-14T12:55:16.490Z,292
2023-02-14T13:00:16.598Z,292
2023-02-14T13:05:19.411Z,292
2023-02-14T13:10:16.469Z,292
2023-02-14T13:15:19.601Z,292
2023-02-14T13:20:19.517Z,292
2023-02-14T13:25:19.456Z,292
2023-02-14T13:30:16.569Z,292
2023-02-14T13:35:16.460Z,292
2023-02-14T13:40:16.281Z,292
2023-02-14T13:45:19.465Z,292
2023-02-14T13:50:16.569Z,315
2023-02-14T13:55:19.529Z,292
2023-02-14T14:00:19.537Z,292
2023-02-14T14:05:16.458Z,292
2023-02-14T14:10:16.504Z,270
2023-02-14T14:15:19.574Z,292
2023-02-14T14:20:19.742Z,292
2023-02-14T14:25:16.535Z,292
2023-02-14T14:30:16.593Z,292
2023-02-14T14:35:19.508Z,292
2023-02-14T14:40:19.462Z,270
2023-02-14T14:45:16.531Z,292
2023-02-14T14:50:16.542Z,270
2023-02-14T14:55:16.449Z,225
2023-02-14T15:00:17.195Z,225
2023-02-14T15:05:19.504Z,225
2023-02-14T15:10:19.519Z,225
2023-02-14T15:15:19.563Z,292
2023-02-14T15:20:16.525Z,292
2023-02-14T15:25:16.678Z,270
2023-02-14T15:30:16.647Z,292
2023-02-14T15:35:19.544Z,292
2023-02-14T15:40:16.620Z,292
2023-02-14T15:45:19.567Z,315
2023-02-14T15:50:16.620Z,270
2023-02-14T15:55:19.670Z,292
2023-02-14T16:00:19.575Z,315
2023-02-14T16:05:19.562Z,270
2023-02-14T16:10:19.592Z,292
2023-02-14T16:15:19.473Z,292
2023-02-14T16:20:19.514Z,270
2023-02-14T16:25:19.563Z,315
2023-02-14T16:30:19.854Z,315
2023-02-14T16:35:19.557Z,315
2023-02-14T16:40:19.610Z,292
2023-02-14T16:45:19.597Z,292
2023-02-14T16:50:19.538Z,292
2023-02-14T16:55:19.550Z,292
2023-02-14T17:00:16.627Z,292
2023-02-14T17:05:16.722Z,292
2023-02-14T17:10:19.683Z,315
2023-02-14T17:15:19.606Z,292
2023-02-14T17:20:19.621Z,292
2023-02-14T17:25:19.569Z,292
2023-02-14T17:30:19.635Z,225
2023-02-14T17:35:16.594Z,292
2023-02-14T17:40:19.944Z,292
2023-02-14T17:45:19.571Z,315
2023-02-14T17:50:16.647Z,338
2023-02-14T17:55:16.644Z,315
2023-02-14T18:00:16.682Z,315
2023-02-14T18:05:19.647Z,292
2023-02-14T18:10:19.737Z,315
2023-02-14T18:15:19.753Z,315
2023-02-14T18:20:19.666Z,292
2023-02-14T18:25:19.668Z,225
2023-02-14T18:30:19.741Z,270
2023-02-14T18:35:19.676Z,270
2023-02-14T18:40:16.668Z,292
2023-02-14T18:45:16.652Z,292
2023-02-14T18:50:16.799Z,225
2023-02-14T18:55:19.663Z,225
2023-02-14T19:00:16.684Z,292
2023-02-14T19:05:16.697Z,292
2023-02-14T19:10:19.689Z,248
2023-02-14T19:15:19.648Z,225
2023-02-14T19:20:19.886Z,270
2023-02-14T19:25:19.654Z,225
2023-02-14T19:30:16.577Z,292
2023-02-14T19:35:16.684Z,225
2023-02-14T19:40:19.702Z,225
2023-02-14T19:45:19.676Z,292
2023-02-14T19:50:21.956Z,292
2023-02-14T19:55:19.875Z,270
2023-02-14T20:00:16.734Z,225
2023-02-14T20:05:16.743Z,225
2023-02-14T20:10:16.753Z,292
2023-02-14T20:15:19.705Z,292
2023-02-14T20:20:16.777Z,292
2023-02-14T20:25:19.743Z,315
2023-02-14T20:30:20.098Z,292
2023-02-14T20:35:19.671Z,292
2023-02-14T20:40:19.764Z,292
2023-02-14T20:45:16.773Z,315
2023-02-14T20:50:16.697Z,292
2023-02-14T20:55:19.721Z,292
2023-02-14T21:00:19.810Z,292
2023-02-14T21:05:19.958Z,315
2023-02-14T21:10:19.722Z,292
2023-02-14T21:15:19.723Z,225
2023-02-14T21:20:19.730Z,292
2023-02-14T21:25:22.174Z,225
2023-02-14T21:30:16.833Z,292
2023-02-14T21:35:16.801Z,292
2023-02-14T21:40:16.923Z,292
2023-02-14T21:45:19.804Z,292
2023-02-14T21:50:19.763Z,292
2023-02-14T21:55:19.763Z,225
2023-02-14T22:00:19.770Z,270
2023-02-14T22:05:19.750Z,270
2023-02-14T22:10:16.722Z,292
2023-02-14T22:15:17.070Z,270
2023-02-14T22:20:19.815Z,225
2023-02-14T22:25:19.790Z,225
2023-02-14T22:30:19.770Z,225
2023-02-14T22:35:19.802Z,292
2023-02-14T22:40:16.847Z,292
2023-02-14T22:45:16.807Z,292
2023-02-14T22:50:20.029Z,292
2023-02-14T22:55:16.953Z,315
2023-02-14T23:15:19.861Z,292
2023-02-14T23:20:19.803Z,292
2023-02-14T23:25:16.945Z,292
2023-02-14T23:30:16.774Z,225
2023-02-14T23:35:16.872Z,225
2023-02-14T23:40:16.956Z,292
2023-02-14T23:45:19.902Z,225
2023-02-14T23:50:19.896Z,292
2023-02-14T23:55:20.038Z,292
